Time;durP1;ratioP1;P1;durP2;ratioP2;P2;SDS_P1;SDS_P2;PMS_P1;PMS_P2;Temp;Humidity;BMP_temperature;BMP_pressure;BME280_temperature;BME280_humidity;BME280_pressure;Samples;Min_cycle;Max_cycle;Signal;HPM_P1;HPM_P2
2023/10/26 00:02:17;;;;;;;1999.90;999.90;;;9.90;99.90;;;;;;5049632;28;20033;-70
2023/10/26 00:04:43;;;;;;;1999.90;999.90;;;9.80;99.90;;;;;;5048803;28;20317;-70
2023/10/26 00:07:08;;;;;;;1999.90;999.90;;;9.80;99.90;;;;;;5050396;28;20021;-70
2023/10/26 00:09:34;;;;;;;1999.90;999.90;;;9.80;99.90;;;;;;5046995;28;20093;-70
2023/10/26 00:11:59;;;;;;;1999.90;999.90;;;9.80;99.90;;;;;;5045126;28;20030;-70
2023/10/26 00:14:25;;;;;;;1999.90;999.90;;;9.80;99.90;;;;;;5048680;28;20039;-70
2023/10/26 00:16:51;;;;;;;1999.90;999.90;;;9.70;99.90;;;;;;5042781;28;20060;-76
2023/10/26 00:19:16;;;;;;;1999.90;999.90;;;9.70;99.90;;;;;;5046356;28;20316;-70
2023/10/26 00:21:42;;;;;;;1999.90;999.90;;;9.70;99.90;;;;;;5044967;28;20025;-70
2023/10/26 00:24:08;;;;;;;1999.90;999.90;;;9.60;99.90;;;;;;5043721;28;20053;-70
2023/10/26 00:26:34;;;;;;;1999.90;999.90;;;9.60;99.90;;;;;;5045918;28;20030;-70
2023/10/26 00:28:59;;;;;;;1999.90;999.90;;;9.50;99.90;;;;;;5039491;28;20774;-70
2023/10/26 00:31:25;;;;;;;1999.90;999.90;;;9.50;99.90;;;;;;5045489;28;20021;-70
2023/10/26 00:33:51;;;;;;;1999.90;999.90;;;9.50;99.90;;;;;;5051197;28;20028;-75
2023/10/26 00:36:16;;;;;;;1999.90;999.90;;;9.50;99.90;;;;;;5049599;28;20088;-70
2023/10/26 00:38:42;;;;;;;1999.90;999.90;;;9.50;99.90;;;;;;5047957;28;20083;-70
2023/10/26 00:41:08;;;;;;;1999.90;999.90;;;9.50;99.90;;;;;;5044002;28;20031;-70
2023/10/26 00:43:33;;;;;;;1999.90;999.90;;;9.50;99.90;;;;;;5047298;28;20415;-70
2023/10/26 00:45:59;;;;;;;1999.90;999.90;;;9.60;99.90;;;;;;5037958;28;20030;-69
2023/10/26 00:48:25;;;;;;;1999.90;999.90;;;9.60;99.90;;;;;;5048326;28;20021;-69
2023/10/26 00:50:52;;;;;;;1999.90;999.90;;;9.60;99.90;;;;;;5044668;28;20492;-76
2023/10/26 00:53:20;;;;;;;1999.90;999.90;;;9.70;99.90;;;;;;5045966;28;20033;-70
2023/10/26 00:55:48;;;;;;;1999.90;999.90;;;9.70;99.90;;;;;;5052117;28;20033;-70
2023/10/26 00:58:14;;;;;;;1999.90;999.90;;;9.70;99.90;;;;;;5048284;28;20040;-70
2023/10/26 01:00:40;;;;;;;1999.90;999.90;;;9.70;99.90;;;;;;5048677;28;20052;-69
2023/10/26 01:03:06;;;;;;;1999.90;999.90;;;9.70;99.90;;;;;;5045327;28;20025;-69
2023/10/26 01:05:32;;;;;;;1999.90;999.90;;;9.70;99.90;;;;;;5049233;28;20044;-70
2023/10/26 01:07:58;;;;;;;1999.90;999.90;;;9.80;99.90;;;;;;5042411;28;20412;-75
2023/10/26 01:10:24;;;;;;;1999.90;999.90;;;9.80;99.90;;;;;;5044449;28;20040;-70
2023/10/26 01:12:50;;;;;;;1999.90;999.90;;;9.80;99.90;;;;;;5046688;28;20134;-70
2023/10/26 01:15:16;;;;;;;1999.90;999.90;;;9.70;99.90;;;;;;5045605;28;20029;-70
2023/10/26 01:17:42;;;;;;;1999.90;999.90;;;9.70;99.90;;;;;;5041976;28;20383;-70
2023/10/26 01:20:08;;;;;;;1999.90;999.90;;;9.60;99.90;;;;;;5043509;28;20056;-70
2023/10/26 01:22:34;;;;;;;1999.90;999.90;;;9.60;99.90;;;;;;5046315;28;20029;-70
2023/10/26 01:25:00;;;;;;;1999.90;999.90;;;9.70;99.90;;;;;;5048007;28;20022;-70
2023/10/26 01:27:25;;;;;;;1999.90;999.90;;;9.70;99.90;;;;;;5044433;28;20025;-70
2023/10/26 01:29:51;;;;;;;1999.90;999.90;;;9.70;99.90;;;;;;5040583;28;20036;-69
2023/10/26 01:32:17;;;;;;;1999.90;999.90;;;9.70;99.90;;;;;;5047105;28;20029;-70
2023/10/26 01:34:42;;;;;;;1999.90;999.90;;;9.60;99.90;;;;;;5045669;28;20032;-76
2023/10/26 01:37:08;;;;;;;1999.90;999.90;;;9.60;99.90;;;;;;5046706;28;20071;-69
2023/10/26 01:39:34;;;;;;;1999.90;999.90;;;9.70;99.90;;;;;;5051563;28;20585;-70
2023/10/26 01:42:00;;;;;;;1999.90;999.90;;;9.70;99.90;;;;;;5046807;28;20049;-70
2023/10/26 01:44:26;;;;;;;1999.90;999.90;;;9.60;99.90;;;;;;5040453;28;20029;-69
2023/10/26 01:46:52;;;;;;;1999.90;999.90;;;9.60;99.90;;;;;;5040385;28;20421;-70
2023/10/26 01:49:17;;;;;;;1999.90;999.90;;;9.60;99.90;;;;;;5052560;28;20037;-70
2023/10/26 01:51:43;;;;;;;1999.90;999.90;;;9.60;99.90;;;;;;5045796;28;20107;-75
2023/10/26 01:54:09;;;;;;;1999.90;999.90;;;9.60;99.90;;;;;;5055165;28;20049;-70
2023/10/26 01:56:35;;;;;;;1999.90;999.90;;;9.60;99.90;;;;;;5054999;28;20024;-70
2023/10/26 01:59:00;;;;;;;1999.90;999.90;;;9.60;99.90;;;;;;5049720;28;20032;-70
2023/10/26 02:01:26;;;;;;;1999.90;999.90;;;9.50;99.90;;;;;;5046947;28;20340;-71
2023/10/26 02:03:52;;;;;;;1999.90;999.90;;;9.50;99.90;;;;;;5050425;28;20053;-70
2023/10/26 02:06:18;;;;;;;1999.90;999.90;;;9.50;99.90;;;;;;5054428;28;20021;-69
2023/10/26 02:08:43;;;;;;;1999.90;999.90;;;9.50;99.90;;;;;;5050576;28;20047;-70
2023/10/26 02:11:09;;;;;;;1999.90;999.90;;;9.60;99.90;;;;;;5055061;28;20107;-70
2023/10/26 02:13:35;;;;;;;1999.90;999.90;;;9.60;99.90;;;;;;5054314;28;20025;-69
2023/10/26 02:16:02;;;;;;;1999.90;999.90;;;9.60;99.90;;;;;;5054790;28;20112;-76
2023/10/26 02:18:29;;;;;;;1999.90;999.90;;;9.60;99.90;;;;;;5056073;28;20344;-69
2023/10/26 02:20:55;;;;;;;1999.90;999.90;;;9.60;99.90;;;;;;5053463;28;20032;-70
2023/10/26 02:23:23;;;;;;;1999.90;999.90;;;9.60;99.90;;;;;;5054049;28;20399;-70
2023/10/26 02:25:49;;;;;;;1999.90;999.90;;;9.60;99.90;;;;;;5053268;28;20052;-75
2023/10/26 02:28:19;;;;;;;1999.90;999.90;;;9.60;99.90;;;;;;5052093;28;20057;-70
2023/10/26 02:30:46;;;;;;;1999.90;999.90;;;9.50;99.90;;;;;;5048240;28;20034;-70
2023/10/26 02:33:11;;;;;;;1999.90;999.90;;;9.50;99.90;;;;;;5047947;28;20037;-70
2023/10/26 02:35:40;;;;;;;1999.90;999.90;;;9.50;99.90;;;;;;5049392;28;20044;-70
2023/10/26 02:38:06;;;;;;;1999.90;999.90;;;9.50;99.90;;;;;;5051072;28;20051;-75
2023/10/26 02:40:34;;;;;;;1999.90;999.90;;;9.50;99.90;;;;;;5044259;28;20026;-70
2023/10/26 02:43:00;;;;;;;1999.90;999.90;;;9.50;99.90;;;;;;5045591;28;20029;-72
2023/10/26 02:45:27;;;;;;;1999.90;999.90;;;9.40;99.90;;;;;;5041605;28;20036;-70
2023/10/26 02:47:52;;;;;;;1999.90;999.90;;;9.30;99.90;;;;;;5045684;28;20028;-70
2023/10/26 02:50:18;;;;;;;1999.90;999.90;;;9.30;99.90;;;;;;5041604;28;20045;-69
2023/10/26 02:52:43;;;;;;;1999.90;999.90;;;9.20;99.90;;;;;;5049485;28;20034;-70
2023/10/26 02:55:09;;;;;;;1999.90;999.90;;;9.10;99.90;;;;;;5042845;28;20131;-69
2023/10/26 02:57:35;;;;;;;1999.90;999.90;;;9.10;99.90;;;;;;5041346;28;20025;-70
2023/10/26 03:00:02;;;;;;;1999.90;999.90;;;9.10;99.90;;;;;;5050420;28;20550;-70
2023/10/26 03:02:28;;;;;;;;;;;9.00;99.90;;;;;;5042004;28;20108;-69
2023/10/26 03:04:53;;;;;;;1999.90;999.90;;;9.00;99.90;;;;;;5048034;28;20011;-76
2023/10/26 03:07:22;;;;;;;1999.90;999.90;;;9.10;99.90;;;;;;5047846;28;20324;-70
2023/10/26 03:09:51;;;;;;;1999.90;999.90;;;9.10;99.90;;;;;;5054208;28;20335;-69
2023/10/26 03:12:19;;;;;;;1999.90;999.90;;;9.10;99.90;;;;;;5047865;28;20029;-74
2023/10/26 03:14:44;;;;;;;1999.90;999.90;;;9.00;99.90;;;;;;5053831;28;20451;-70
2023/10/26 03:17:15;;;;;;;1999.90;999.90;;;9.10;99.90;;;;;;5053524;28;20092;-69
2023/10/26 03:19:41;;;;;;;1999.90;999.90;;;9.20;99.90;;;;;;5048353;28;20116;-69
2023/10/26 03:22:07;;;;;;;1999.90;999.90;;;9.20;99.90;;;;;;5053683;28;20434;-69
2023/10/26 03:24:33;;;;;;;1999.90;999.90;;;9.20;99.90;;;;;;5054013;28;20053;-69
2023/10/26 03:26:58;;;;;;;1999.90;999.90;;;9.20;99.90;;;;;;5054847;28;20340;-69
2023/10/26 03:29:24;;;;;;;1999.90;999.90;;;9.20;99.90;;;;;;5042166;28;20093;-70
2023/10/26 03:31:51;;;;;;;1999.90;999.90;;;9.20;99.90;;;;;;5054886;28;20078;-69
2023/10/26 03:34:17;;;;;;;;;;;9.10;99.90;;;;;;5052863;28;20025;-69
2023/10/26 03:36:42;;;;;;;1999.90;999.90;;;9.10;99.90;;;;;;5054699;28;20286;-69
2023/10/26 03:39:08;;;;;;;1999.90;999.90;;;9.00;99.90;;;;;;5049031;28;20087;-70
2023/10/26 03:41:34;;;;;;;1999.90;999.90;;;8.90;99.90;;;;;;5042412;28;20026;-70
2023/10/26 03:44:00;;;;;;;1999.90;999.90;;;9.00;99.90;;;;;;5044621;28;20503;-69
2023/10/26 03:46:25;;;;;;;1999.90;999.90;;;9.10;99.90;;;;;;5046979;28;20029;-69
2023/10/26 03:48:51;;;;;;;1999.90;999.90;;;9.10;99.90;;;;;;5047365;28;20361;-69
2023/10/26 03:51:17;;;;;;;1999.90;999.90;;;9.00;99.90;;;;;;5052575;28;20051;-69
2023/10/26 03:53:42;;;;;;;1999.90;999.90;;;8.90;99.90;;;;;;5048996;28;20420;-69
2023/10/26 03:56:08;;;;;;;1999.90;999.90;;;8.90;99.90;;;;;;5046821;28;20478;-75
2023/10/26 03:58:34;;;;;;;1999.90;999.90;;;8.90;99.90;;;;;;5052480;28;20340;-69
2023/10/26 04:01:00;;;;;;;1999.90;999.90;;;8.90;99.90;;;;;;5047100;28;20408;-69
2023/10/26 04:03:26;;;;;;;1999.90;999.90;;;9.00;99.90;;;;;;5051190;28;20032;-69
2023/10/26 04:05:53;;;;;;;1999.90;999.90;;;9.00;99.90;;;;;;5053874;28;20029;-70
2023/10/26 04:08:18;;;;;;;1999.90;999.90;;;9.00;99.90;;;;;;5052176;28;20443;-69
2023/10/26 04:10:44;;;;;;;1999.90;999.90;;;9.00;99.90;;;;;;5043730;28;20036;-70
2023/10/26 04:13:10;;;;;;;1999.90;999.90;;;9.10;99.90;;;;;;5053747;28;20029;-69
2023/10/26 04:15:35;;;;;;;1999.90;999.90;;;9.00;99.90;;;;;;5046943;28;20033;-69
2023/10/26 04:18:08;;;;;;;1999.90;999.90;;;8.90;99.90;;;;;;5046934;28;20470;-69
2023/10/26 04:20:34;;;;;;;1999.90;999.90;;;8.90;99.90;;;;;;5051347;28;20151;-69
2023/10/26 04:23:00;;;;;;;1999.90;999.90;;;8.90;99.90;;;;;;5047819;28;20025;-69
2023/10/26 04:25:28;;;;;;;1999.90;999.90;;;9.00;99.90;;;;;;5051476;28;20481;-69
2023/10/26 04:27:57;;;;;;;1999.90;999.90;;;9.00;99.90;;;;;;5049649;28;20171;-69
2023/10/26 04:30:23;;;;;;;1999.90;999.90;;;8.90;99.90;;;;;;5044712;28;20025;-75
2023/10/26 04:32:50;;;;;;;1999.90;999.90;;;8.90;99.90;;;;;;5051804;28;20025;-70
2023/10/26 04:35:15;;;;;;;1999.90;999.90;;;8.90;99.90;;;;;;5053694;28;20067;-76
2023/10/26 04:37:41;;;;;;;1999.90;999.90;;;8.90;99.90;;;;;;5053417;28;20060;-69
2023/10/26 04:40:08;;;;;;;1999.90;999.90;;;8.80;99.90;;;;;;5048595;28;20391;-69
2023/10/26 04:42:34;;;;;;;;;;;8.80;99.90;;;;;;5046728;28;20036;-69
2023/10/26 04:44:59;;;;;;;1999.90;999.90;;;8.80;99.90;;;;;;5054651;28;19909;-69
2023/10/26 04:47:25;;;;;;;1999.90;999.90;;;8.80;99.90;;;;;;5053689;28;20376;-70
2023/10/26 04:49:51;;;;;;;1999.90;999.90;;;8.70;99.90;;;;;;5056671;28;20052;-69
2023/10/26 04:52:18;;;;;;;1999.90;999.90;;;8.70;99.90;;;;;;5057436;28;20438;-69
2023/10/26 04:54:44;;;;;;;1999.90;999.90;;;8.80;99.90;;;;;;5049300;28;20386;-69
2023/10/26 04:57:10;;;;;;;1999.90;999.90;;;8.80;99.90;;;;;;5049594;28;20116;-69
2023/10/26 04:59:36;;;;;;;1999.90;999.90;;;8.70;99.90;;;;;;5052150;28;20431;-69
2023/10/26 05:02:01;;;;;;;1999.90;999.90;;;8.70;99.90;;;;;;5052565;28;20021;-70
2023/10/26 05:04:27;;;;;;;1999.90;999.90;;;8.70;99.90;;;;;;5051459;28;20051;-69
2023/10/26 05:06:53;;;;;;;1999.90;999.90;;;8.70;99.90;;;;;;5050302;28;20036;-70
2023/10/26 05:09:19;;;;;;;1999.90;999.90;;;8.70;99.90;;;;;;5045328;28;20025;-70
2023/10/26 05:11:44;;;;;;;1999.90;999.90;;;8.70;99.90;;;;;;5047366;28;20109;-70
2023/10/26 05:14:10;;;;;;;1999.90;999.90;;;8.70;99.90;;;;;;5046761;28;20036;-74
2023/10/26 05:16:36;;;;;;;1999.90;999.90;;;8.80;99.90;;;;;;5055051;28;20032;-69
2023/10/26 05:19:03;;;;;;;1999.90;999.90;;;8.90;99.90;;;;;;5047516;28;20477;-69
2023/10/26 05:21:28;;;;;;;1999.90;999.90;;;8.90;99.90;;;;;;5048728;28;20025;-69
2023/10/26 05:23:54;;;;;;;1999.90;999.90;;;9.00;99.90;;;;;;5044875;28;20471;-69
2023/10/26 05:26:19;;;;;;;1999.90;999.90;;;9.10;99.90;;;;;;5056753;28;20028;-69
2023/10/26 05:28:47;;;;;;;1999.90;999.90;;;9.10;99.90;;;;;;5042954;28;20065;-69
2023/10/26 05:31:12;;;;;;;1999.90;999.90;;;9.10;99.90;;;;;;5046402;28;20025;-74
2023/10/26 05:33:38;;;;;;;1999.90;999.90;;;9.10;99.90;;;;;;5050575;28;20328;-69
2023/10/26 05:36:04;;;;;;;1999.90;999.90;;;9.10;99.90;;;;;;5050175;28;20112;-69
2023/10/26 05:38:30;;;;;;;1999.90;999.90;;;9.20;99.90;;;;;;5045471;28;20328;-69
2023/10/26 05:40:56;;;;;;;1999.90;999.90;;;9.20;99.90;;;;;;5046619;28;20136;-69
2023/10/26 05:43:24;;;;;;;1999.90;999.90;;;9.20;99.90;;;;;;5046890;28;20424;-70
2023/10/26 05:45:52;;;;;;;1999.90;999.90;;;9.20;99.90;;;;;;5050304;28;20029;-69
2023/10/26 05:48:19;;;;;;;1999.90;999.90;;;9.30;99.90;;;;;;5055052;28;20029;-70
2023/10/26 05:50:46;;;;;;;1999.90;999.90;;;9.30;99.90;;;;;;5055190;28;20040;-70
2023/10/26 05:53:11;;;;;;;1999.90;999.90;;;9.30;99.90;;;;;;5053644;28;20079;-70
2023/10/26 05:55:41;;;;;;;1999.90;999.90;;;9.30;99.90;;;;;;5052319;28;20029;-70
2023/10/26 05:58:09;;;;;;;1999.90;999.90;;;9.30;99.90;;;;;;5044479;28;20412;-69
2023/10/26 06:00:34;;;;;;;1999.90;999.90;;;9.30;99.90;;;;;;5044150;28;20048;-69
2023/10/26 06:03:00;;;;;;;1999.90;999.90;;;9.30;99.90;;;;;;5047787;28;20064;-69
2023/10/26 06:05:27;;;;;;;1999.90;999.90;;;9.30;99.90;;;;;;5052529;28;20045;-70
2023/10/26 06:07:53;;;;;;;1999.90;999.90;;;9.30;99.90;;;;;;5044375;28;20385;-69
2023/10/26 06:10:19;;;;;;;1999.90;999.90;;;9.30;99.90;;;;;;5044855;28;20025;-70
2023/10/26 06:12:44;;;;;;;1999.90;999.90;;;9.20;99.90;;;;;;5046053;28;20026;-69
2023/10/26 06:15:10;;;;;;;1999.90;999.90;;;9.20;99.90;;;;;;5051416;28;20040;-75
2023/10/26 06:17:36;;;;;;;1999.90;999.90;;;9.20;99.90;;;;;;5039504;28;20029;-69
2023/10/26 06:20:01;;;;;;;1999.90;999.90;;;9.20;99.90;;;;;;5053230;28;20027;-70
2023/10/26 06:22:27;;;;;;;1999.90;999.90;;;9.20;99.90;;;;;;5049583;28;20021;-74
2023/10/26 06:24:53;;;;;;;1999.90;999.90;;;9.20;99.90;;;;;;5044364;28;20033;-69
2023/10/26 06:27:19;;;;;;;1999.90;999.90;;;9.20;99.90;;;;;;5045581;28;20024;-69
2023/10/26 06:29:45;;;;;;;1999.90;999.90;;;9.20;99.90;;;;;;5053754;28;20056;-69
2023/10/26 06:32:12;;;;;;;1999.90;999.90;;;9.10;99.90;;;;;;5052381;28;20073;-69
2023/10/26 06:34:37;;;;;;;1999.90;999.90;;;9.10;99.90;;;;;;5040208;28;20354;-69
2023/10/26 06:37:03;;;;;;;1999.90;999.90;;;9.10;99.90;;;;;;5049640;28;20043;-69
2023/10/26 06:39:29;;;;;;;1999.90;999.90;;;9.20;99.90;;;;;;5051357;28;20108;-70
2023/10/26 06:41:56;;;;;;;1999.90;999.90;;;9.10;99.90;;;;;;5045353;28;20111;-70
2023/10/26 06:44:21;;;;;;;;;;;9.10;99.90;;;;;;5049347;28;20028;-69
2023/10/26 06:46:47;;;;;;;1999.90;999.90;;;9.10;99.90;;;;;;5051560;28;19916;-70
2023/10/26 06:49:13;;;;;;;1999.90;999.90;;;9.10;99.90;;;;;;5057281;28;20269;-75
2023/10/26 06:51:38;;;;;;;1999.90;999.90;;;9.10;99.90;;;;;;5048761;28;20056;-69
2023/10/26 06:54:04;;;;;;;1999.90;999.90;;;9.10;99.90;;;;;;5046551;28;20111;-69
2023/10/26 06:56:30;;;;;;;1999.90;999.90;;;9.10;99.90;;;;;;5048850;28;20121;-69
2023/10/26 06:58:55;;;;;;;1999.90;999.90;;;9.20;99.90;;;;;;5054199;28;20039;-70
2023/10/26 07:01:21;;;;;;;1999.90;999.90;;;9.20;99.90;;;;;;5058034;28;20032;-69
2023/10/26 07:03:50;;;;;;;1999.90;999.90;;;9.20;99.90;;;;;;5046272;28;20037;-69
2023/10/26 07:06:16;;;;;;;1999.90;999.90;;;9.20;99.90;;;;;;5050388;28;20403;-75
2023/10/26 07:08:42;;;;;;;1999.90;999.90;;;9.20;99.90;;;;;;5053964;28;20053;-69
2023/10/26 07:11:08;;;;;;;1999.90;999.90;;;9.20;99.90;;;;;;5051240;28;20070;-69
2023/10/26 07:13:34;;;;;;;1999.90;999.90;;;9.20;99.90;;;;;;5049182;28;20195;-69
2023/10/26 07:16:00;;;;;;;1999.90;999.90;;;9.20;99.90;;;;;;5047763;28;20036;-70
2023/10/26 07:18:26;;;;;;;1999.90;999.90;;;9.20;99.90;;;;;;5050457;28;20033;-70
2023/10/26 07:20:53;;;;;;;1999.90;999.90;;;9.20;99.90;;;;;;5047046;28;20420;-70
2023/10/26 07:23:19;;;;;;;1999.90;999.90;;;9.30;99.90;;;;;;5043009;28;20029;-70
2023/10/26 07:25:45;;;;;;;1999.90;999.90;;;9.30;99.90;;;;;;5045763;28;20108;-69
2023/10/26 07:28:11;;;;;;;1999.90;999.90;;;9.30;99.90;;;;;;5045413;28;20128;-69
2023/10/26 07:30:41;;;;;;;1999.90;999.90;;;9.30;99.90;;;;;;5050294;28;20033;-69
2023/10/26 07:33:07;;;;;;;1999.90;999.90;;;9.30;99.90;;;;;;5052559;28;20044;-70
2023/10/26 07:35:42;;;;;;;1999.90;999.90;;;9.30;99.90;;;;;;5051308;28;20025;-69
2023/10/26 07:38:08;;;;;;;1999.90;999.90;;;9.20;99.90;;;;;;5043016;28;20252;-69
2023/10/26 07:40:36;;;;;;;1999.90;999.90;;;9.20;99.90;;;;;;5060680;28;20021;-70
2023/10/26 07:43:02;;;;;;;1999.90;999.90;;;9.30;99.90;;;;;;5044835;28;20116;-69
2023/10/26 07:45:28;;;;;;;1999.90;999.90;;;9.20;99.90;;;;;;5054418;28;20100;-70
2023/10/26 07:47:58;;;;;;;1999.90;999.90;;;9.20;99.90;;;;;;5052653;28;20032;-76
2023/10/26 07:50:23;;;;;;;1999.90;999.90;;;9.20;99.90;;;;;;5048925;28;20442;-69
2023/10/26 07:52:49;;;;;;;1999.90;999.90;;;9.20;99.90;;;;;;5048910;28;20108;-69
2023/10/26 07:55:17;;;;;;;1999.90;999.90;;;9.20;99.90;;;;;;5055768;28;20064;-70
2023/10/26 07:57:42;;;;;;;1999.90;999.90;;;9.30;99.90;;;;;;5043025;28;20120;-70
2023/10/26 08:00:11;;;;;;;1999.90;999.90;;;9.30;99.90;;;;;;5051274;28;21291;-69
2023/10/26 08:02:37;;;;;;;1999.90;999.90;;;9.30;99.90;;;;;;5047876;28;20058;-69
2023/10/26 08:05:03;;;;;;;1999.90;999.90;;;9.30;99.90;;;;;;5053882;28;20025;-77
2023/10/26 08:07:29;;;;;;;1999.90;999.90;;;9.30;99.90;;;;;;5053537;28;20028;-69
2023/10/26 08:09:56;;;;;;;1999.90;999.90;;;9.30;99.90;;;;;;5053225;28;20423;-69
2023/10/26 08:12:23;;;;;;;1999.90;999.90;;;9.30;99.90;;;;;;5050111;28;20079;-69
2023/10/26 08:14:51;;;;;;;1999.90;999.90;;;9.30;99.90;;;;;;5051731;28;20328;-69
2023/10/26 08:17:17;;;;;;;1999.90;999.90;;;9.30;99.90;;;;;;5035470;28;20134;-69
2023/10/26 08:19:42;;;;;;;1999.90;999.90;;;9.30;99.90;;;;;;5046144;28;20420;-76
2023/10/26 08:22:10;;;;;;;1999.90;999.90;;;9.30;99.90;;;;;;5048736;28;20021;-70
2023/10/26 08:24:36;;;;;;;1999.90;999.90;;;9.40;99.90;;;;;;5042269;28;20483;-75
2023/10/26 08:27:02;;;;;;;1999.90;999.90;;;9.50;99.90;;;;;;5043938;28;20121;-69
2023/10/26 08:29:29;;;;;;;1999.90;999.90;;;9.50;99.90;;;;;;5042372;28;20274;-70
2023/10/26 08:31:55;;;;;;;1999.90;999.90;;;9.50;99.90;;;;;;5045114;28;20488;-69
2023/10/26 08:34:21;;;;;;;1999.90;999.90;;;9.60;99.90;;;;;;5040177;28;20033;-69
2023/10/26 08:36:47;;;;;;;1999.90;999.90;;;9.60;99.90;;;;;;5046664;28;20017;-70
2023/10/26 08:39:13;;;;;;;1999.90;999.90;;;9.60;99.90;;;;;;5045293;28;20021;-77
2023/10/26 08:41:46;;;;;;;1999.90;999.90;;;9.60;99.90;;;;;;5043558;28;20084;-69
2023/10/26 08:44:12;;;;;;;1999.90;999.90;;;9.60;99.90;;;;;;5046151;28;20021;-76
2023/10/26 08:46:39;;;;;;;1999.90;999.90;;;9.60;99.90;;;;;;5043011;28;20048;-70
2023/10/26 08:49:08;;;;;;;1999.90;999.90;;;9.60;99.90;;;;;;5040448;28;20116;-70
2023/10/26 08:51:33;;;;;;;1999.90;999.90;;;9.50;99.90;;;;;;5043443;28;20108;-77
2023/10/26 08:54:00;;;;;;;1999.90;999.90;;;9.60;99.90;;;;;;5036148;28;20113;-69
2023/10/26 08:56:27;;;;;;;1999.90;999.90;;;9.60;99.90;;;;;;5041259;28;20420;-69
2023/10/26 08:58:59;;;;;;;1999.90;999.90;;;9.60;99.90;;;;;;5039950;28;20061;-69
2023/10/26 09:01:25;;;;;;;1999.90;999.90;;;9.60;99.90;;;;;;5048577;28;20408;-69
2023/10/26 09:03:51;;;;;;;1999.90;999.90;;;9.70;99.90;;;;;;5046092;28;20040;-70
2023/10/26 09:06:17;;;;;;;1999.90;999.90;;;9.70;99.90;;;;;;5048044;28;20029;-70
2023/10/26 09:08:43;;;;;;;1999.90;999.90;;;9.70;99.90;;;;;;5043990;28;20029;-70
2023/10/26 09:11:22;;;;;;;1999.90;999.90;;;9.70;99.90;;;;;;5048055;28;20025;-76
2023/10/26 09:13:50;;;;;;;1999.90;999.90;;;9.70;99.90;;;;;;5041090;28;20037;-70
2023/10/26 09:16:15;;;;;;;1999.90;999.90;;;9.70;99.90;;;;;;5045581;28;20432;-70
2023/10/26 09:18:50;;;;;;;1999.90;999.90;;;9.70;99.90;;;;;;5042732;28;20052;-77
2023/10/26 09:21:16;;;;;;;1999.90;999.90;;;9.70;99.90;;;;;;5045828;28;20181;-70
2023/10/26 09:23:42;;;;;;;1999.90;999.90;;;9.70;99.90;;;;;;5040016;28;20123;-70
2023/10/26 09:26:09;;;;;;;1999.90;999.90;;;9.70;99.90;;;;;;5043054;28;20029;-70
2023/10/26 09:28:52;;;;;;;1999.90;999.90;;;9.80;99.90;;;;;;5047375;28;20708;-69
2023/10/26 09:31:18;;;;;;;1999.90;999.90;;;9.80;99.90;;;;;;5042785;28;20040;-70
2023/10/26 09:33:45;;;;;;;1999.90;999.90;;;9.80;99.90;;;;;;5049908;28;20041;-70
2023/10/26 09:36:13;;;;;;;1999.90;999.90;;;9.90;99.90;;;;;;5049274;28;20408;-70
2023/10/26 09:38:39;;;;;;;1999.90;999.90;;;9.90;99.90;;;;;;5048469;28;20033;-70
2023/10/26 09:41:13;;;;;;;1999.90;999.90;;;9.90;99.90;;;;;;5051644;28;20021;-70
2023/10/26 09:43:42;;;;;;;1999.90;999.90;;;9.90;99.90;;;;;;5049575;28;20051;-70
2023/10/26 09:46:11;;;;;;;1999.90;999.90;;;10.00;99.90;;;;;;5047316;28;20455;-70
2023/10/26 09:48:38;;;;;;;1999.90;999.90;;;10.10;99.90;;;;;;5050806;28;20024;-71
2023/10/26 09:51:04;;;;;;;1999.90;999.90;;;10.10;99.90;;;;;;5051130;28;20059;-70
2023/10/26 09:53:39;;;;;;;1999.90;999.90;;;10.10;99.90;;;;;;5050940;28;20044;-70
2023/10/26 09:56:08;;;;;;;1999.90;999.90;;;10.20;99.90;;;;;;5046696;28;20032;-71
2023/10/26 09:58:40;;;;;;;1999.90;999.90;;;10.20;99.90;;;;;;5046958;28;20037;-70
2023/10/26 10:01:35;;;;;;;1999.90;999.90;;;10.30;99.90;;;;;;5045285;28;20045;-70
2023/10/26 10:04:02;;;;;;;1999.90;999.90;;;10.40;99.90;;;;;;5051616;28;20028;-71
2023/10/26 10:06:50;;;;;;;1999.90;999.90;;;10.40;99.90;;;;;;5050778;28;20071;-70
2023/10/26 10:09:26;;;;;;;1999.90;999.90;;;10.50;99.90;;;;;;5051223;28;20061;-70
2023/10/26 10:12:05;;;;;;;1999.90;999.90;;;10.60;99.90;;;;;;5052059;28;20028;-70
2023/10/26 10:14:54;;;;;;;1999.90;999.90;;;10.80;99.90;;;;;;5047702;28;20037;-70
2023/10/26 10:17:42;;;;;;;1999.90;999.90;;;10.90;99.90;;;;;;5043532;28;20341;-70
2023/10/26 10:20:14;;;;;;;1999.90;999.90;;;11.00;99.90;;;;;;5048673;28;20041;-70
2023/10/26 10:22:40;;;;;;;1999.90;999.90;;;11.00;99.90;;;;;;5044776;28;20546;-70
2023/10/26 10:25:10;;;;;;;1999.90;999.90;;;11.10;99.90;;;;;;5043703;28;20057;-71
2023/10/26 10:27:37;;;;;;;1999.90;999.90;;;11.10;99.90;;;;;;5044204;28;20029;-70
2023/10/26 10:30:09;;;;;;;1999.90;999.90;;;11.00;99.90;;;;;;5044275;28;20036;-70
2023/10/26 10:32:43;;;;;;;1999.90;999.90;;;11.00;99.90;;;;;;5047493;28;20072;-70
2023/10/26 10:35:21;;;;;;;1999.90;999.90;;;11.00;99.90;;;;;;5043750;28;20048;-70
2023/10/26 10:38:24;;;;;;;1999.90;999.90;;;11.10;99.90;;;;;;5048487;28;20423;-71
2023/10/26 10:40:58;;;;;;;1999.90;999.90;;;11.10;99.90;;;;;;5042841;28;20024;-78
2023/10/26 10:43:43;;;;;;;1999.90;999.90;;;11.10;99.90;;;;;;5046176;28;20037;-70
2023/10/26 10:46:18;;;;;;;1999.90;999.90;;;11.10;99.90;;;;;;5047710;28;20031;-70
2023/10/26 10:49:08;;;;;;;1999.90;999.90;;;11.10;99.90;;;;;;5044278;28;20043;-79
2023/10/26 10:51:39;;;;;;;1999.90;999.90;;;11.20;99.90;;;;;;5051402;28;20113;-76
2023/10/26 10:54:06;;;;;;;1999.90;999.90;;;11.30;99.90;;;;;;5044141;28;20029;-72
2023/10/26 10:56:46;;;;;;;1999.90;999.90;;;11.40;99.90;;;;;;5047275;28;20028;-70
2023/10/26 10:59:16;;;;;;;1999.90;999.90;;;11.60;99.90;;;;;;5040536;28;20033;-71
2023/10/26 11:01:42;;;;;;;1999.90;999.90;;;11.60;99.90;;;;;;5046046;28;20021;-79
2023/10/26 11:04:13;;;;;;;1999.90;999.90;;;11.70;99.90;;;;;;5045569;28;20045;-70
2023/10/26 11:06:46;;;;;;;1999.90;999.90;;;11.90;99.90;;;;;;5049590;28;20029;-71
2023/10/26 11:09:31;;;;;;;1999.90;999.90;;;11.90;99.90;;;;;;5045741;28;20086;-70
2023/10/26 11:12:10;;;;;;;1999.90;999.90;;;12.00;99.90;;;;;;5051588;28;20301;-70
2023/10/26 11:14:37;;;;;;;1999.90;999.90;;;12.10;99.90;;;;;;5050826;28;20048;-70
2023/10/26 11:17:02;;;;;;;1999.90;999.90;;;12.30;99.90;;;;;;5046540;28;20467;-70
2023/10/26 11:19:28;;;;;;;1999.90;999.90;;;12.40;99.90;;;;;;5048494;28;20103;-70
2023/10/26 11:21:55;;;;;;;1999.90;999.90;;;12.40;99.90;;;;;;5053916;28;20209;-70
2023/10/26 11:24:29;;;;;;;1999.90;999.90;;;12.50;99.90;;;;;;5043590;28;20108;-70
2023/10/26 11:27:07;;;;;;;1999.90;999.90;;;12.70;99.90;;;;;;5049829;28;20029;-71
2023/10/26 11:29:33;;;;;;;1999.90;999.90;;;12.70;99.90;;;;;;5041765;28;20025;-70
2023/10/26 11:31:59;;;;;;;1999.90;999.90;;;12.70;99.90;;;;;;5046975;28;20075;-70
2023/10/26 11:34:27;;;;;;;1999.90;999.90;;;12.80;99.90;;;;;;5047802;28;20025;-78
2023/10/26 11:36:54;;;;;;;1999.90;999.90;;;12.80;99.90;;;;;;5049987;28;20312;-71
2023/10/26 11:39:20;;;;;;;1999.90;999.90;;;12.80;99.90;;;;;;5050476;28;20416;-71
2023/10/26 11:41:54;;;;;;;1999.90;999.90;;;12.70;99.90;;;;;;5043618;28;20041;-72
2023/10/26 11:44:24;;;;;;;1999.90;999.90;;;12.70;99.90;;;;;;5054140;28;20025;-71
2023/10/26 11:46:57;;;;;;;1999.90;999.90;;;12.80;99.90;;;;;;5053878;28;20104;-70
2023/10/26 11:49:37;;;;;;;1999.90;999.90;;;12.70;99.90;;;;;;5054519;28;20049;-70
2023/10/26 11:52:04;;;;;;;1999.90;999.90;;;12.70;99.90;;;;;;5054187;28;20112;-71
2023/10/26 11:54:29;;;;;;;1999.90;999.90;;;12.70;99.90;;;;;;5053341;28;20021;-71
2023/10/26 11:56:58;;;;;;;1999.90;999.90;;;12.60;99.90;;;;;;5053262;28;20047;-71
2023/10/26 11:59:23;;;;;;;1999.90;999.90;;;12.60;99.90;;;;;;5053806;28;20156;-70
2023/10/26 12:01:49;;;;;;;1999.90;999.90;;;12.60;99.90;;;;;;5053597;28;20382;-71
2023/10/26 12:04:15;;;;;;;1999.90;999.90;;;12.70;99.90;;;;;;5049349;28;20025;-70
2023/10/26 12:06:41;;;;;;;1999.90;999.90;;;12.70;99.90;;;;;;5053827;28;20029;-70
2023/10/26 12:09:07;;;;;;;1999.90;999.90;;;12.70;99.90;;;;;;5048780;28;20108;-70
2023/10/26 12:11:33;;;;;;;1999.90;999.90;;;12.70;99.90;;;;;;5051461;28;20043;-79